Time;durP1;ratioP1;P1;durP2;ratioP2;P2;SDS_P1;SDS_P2;PMS_P1;PMS_P2;Temp;Humidity;BMP_temperature;BMP_pressure;BME280_temperature;BME280_humidity;BME280_pressure;Samples;Min_cycle;Max_cycle;Signal;HPM_P1;HPM_P2
2022/09/25 00:00:21;;;;;;;;;5.00;5.00;;;;;;;;5022618;28;50882;-50
2022/09/25 00:02:46;;;;;;;;;7.33;7.00;;;;;;;;5029258;28;51267;-50
2022/09/25 00:05:12;;;;;;;;;6.00;6.00;;;;;;;;5029977;28;51101;-51
2022/09/25 00:07:37;;;;;;;;;7.33;6.33;;;;;;;;5026643;28;51120;-50
2022/09/25 00:10:02;;;;;;;;;9.67;8.67;;;;;;;;5036556;28;51311;-51
2022/09/25 00:12:28;;;;;;;;;8.33;7.33;;;;;;;;5036540;28;51172;-49
2022/09/25 00:14:54;;;;;;;;;5.00;4.00;;;;;;;;5040767;28;51036;-51
2022/09/25 00:17:19;;;;;;;;;8.00;7.67;;;;;;;;5035536;28;51816;-48
2022/09/25 00:19:50;;;;;;;;;8.00;8.00;;;;;;;;5044179;28;51077;-50
2022/09/25 00:22:20;;;;;;;;;8.00;8.00;;;;;;;;5023276;28;51116;-49
2022/09/25 00:24:45;;;;;;;;;10.67;9.00;;;;;;;;5035250;28;50819;-49
2022/09/25 00:27:11;;;;;;;;;6.00;6.00;;;;;;;;5042185;28;51395;-50
2022/09/25 00:29:37;;;;;;;;;4.67;4.00;;;;;;;;5034921;28;50973;-52
2022/09/25 00:32:03;;;;;;;;;7.00;7.00;;;;;;;;5033692;28;51139;-50
2022/09/25 00:34:28;;;;;;;;;5.67;5.67;;;;;;;;5033725;28;51427;-51
2022/09/25 00:36:54;;;;;;;;;6.00;5.67;;;;;;;;5030362;28;51080;-49
2022/09/25 00:39:19;;;;;;;;;5.00;5.00;;;;;;;;5032890;28;51184;-51
2022/09/25 00:41:44;;;;;;;;;5.00;5.00;;;;;;;;5034008;28;51293;-49
2022/09/25 00:44:28;;;;;;;;;8.25;7.75;;;;;;;;5034768;28;51314;-49
2022/09/25 00:46:54;;;;;;;;;6.00;6.00;;;;;;;;5032656;28;51848;-49
2022/09/25 00:49:22;;;;;;;;;7.00;7.00;;;;;;;;5035457;28;51063;-50
2022/09/25 00:51:49;;;;;;;;;6.75;6.75;;;;;;;;5032328;28;51206;-52
2022/09/25 00:54:16;;;;;;;;;7.33;7.00;;;;;;;;5037114;28;51051;-52
2022/09/25 00:56:42;;;;;;;;;9.67;8.67;;;;;;;;5032639;28;52023;-51
2022/09/25 00:59:10;;;;;;;;;6.67;6.00;;;;;;;;5032408;28;51166;-51
2022/09/25 01:01:35;;;;;;;;;6.33;6.33;;;;;;;;5038701;28;51044;-51
2022/09/25 01:04:00;;;;;;;;;6.67;6.67;;;;;;;;5044149;28;51280;-53
2022/09/25 01:06:26;;;;;;;;;8.33;6.67;;;;;;;;5051578;28;51012;-51
2022/09/25 01:08:52;;;;;;;;;6.67;6.00;;;;;;;;5033924;28;51052;-50
2022/09/25 01:11:17;;;;;;;;;6.33;6.00;;;;;;;;5033020;28;51065;-51
2022/09/25 01:13:42;;;;;;;;;8.00;8.00;;;;;;;;5032506;28;51067;-49
2022/09/25 01:16:07;;;;;;;;;6.67;5.67;;;;;;;;5040943;28;51076;-51
2022/09/25 01:18:33;;;;;;;;;6.00;6.00;;;;;;;;5036222;28;51110;-52
2022/09/25 01:21:17;;;;;;;;;6.67;6.00;;;;;;;;5036177;28;50948;-51
2022/09/25 01:23:54;;;;;;;;;5.33;5.00;;;;;;;;5025963;28;51876;-50
2022/09/25 01:26:20;;;;;;;;;8.00;6.00;;;;;;;;5037896;28;52766;-51
2022/09/25 01:29:03;;;;;;;;;6.00;5.00;;;;;;;;5034038;28;51067;-51
2022/09/25 01:31:37;;;;;;;;;8.00;7.00;;;;;;;;5039879;28;50901;-50
2022/09/25 01:34:18;;;;;;;;;6.00;6.00;;;;;;;;5032624;28;51182;-49
2022/09/25 01:36:51;;;;;;;;;7.00;7.00;;;;;;;;5030840;28;51653;-52
2022/09/25 01:39:20;;;;;;;;;7.00;7.00;;;;;;;;5038669;28;51254;-51
2022/09/25 01:42:08;;;;;;;;;8.00;7.67;;;;;;;;5036711;28;50993;-50
2022/09/25 01:44:44;;;;;;;;;7.25;7.00;;;;;;;;5041679;27;51117;-50
2022/09/25 01:47:17;;;;;;;;;7.50;6.50;;;;;;;;5024999;28;51946;-50
2022/09/25 01:49:44;;;;;;;;;7.00;7.00;;;;;;;;5034420;28;50899;-52
2022/09/25 01:52:13;;;;;;;;;8.67;8.00;;;;;;;;5045225;28;51159;-50
2022/09/25 01:54:41;;;;;;;;;9.50;8.25;;;;;;;;5036085;28;51039;-50
2022/09/25 01:57:12;;;;;;;;;8.00;7.33;;;;;;;;5033751;28;52119;-52
2022/09/25 01:59:41;;;;;;;;;9.00;8.25;;;;;;;;5031997;28;51210;-53
2022/09/25 02:02:09;;;;;;;;;7.67;7.33;;;;;;;;5034220;28;51134;-51
2022/09/25 02:04:37;;;;;;;;;8.50;8.00;;;;;;;;5028052;28;51085;-51
2022/09/25 02:07:04;;;;;;;;;10.67;8.67;;;;;;;;5036070;28;51985;-52
2022/09/25 02:09:30;;;;;;;;;11.00;7.00;;;;;;;;5033417;28;52537;-50
2022/09/25 02:11:58;;;;;;;;;7.33;7.33;;;;;;;;5034898;28;51240;-49
2022/09/25 02:14:28;;;;;;;;;7.67;7.33;;;;;;;;5046331;28;50917;-49
2022/09/25 02:16:56;;;;;;;;;8.50;7.50;;;;;;;;5034872;28;51774;-53
2022/09/25 02:22:10;;;;;;;;;7.25;6.50;;;;;;;;5033206;28;50962;-51
2022/09/25 02:24:42;;;;;;;;;9.00;8.00;;;;;;;;5032243;28;51421;-50
2022/09/25 02:27:07;;;;;;;;;6.00;6.00;;;;;;;;5034354;28;51150;-50
2022/09/25 02:29:32;;;;;;;;;7.00;6.00;;;;;;;;5030313;28;51092;-52
2022/09/25 02:32:17;;;;;;;;;7.67;7.00;;;;;;;;5041877;28;51264;-50
2022/09/25 02:34:43;;;;;;;;;7.67;7.67;;;;;;;;5034686;28;51028;-49
2022/09/25 02:37:11;;;;;;;;;8.25;6.75;;;;;;;;5037605;28;50893;-51
2022/09/25 02:39:37;;;;;;;;;6.33;6.33;;;;;;;;5029681;28;51001;-52
2022/09/25 02:42:08;;;;;;;;;6.67;6.67;;;;;;;;5039704;28;51125;-49
2022/09/25 02:44:52;;;;;;;;;8.67;8.33;;;;;;;;5029680;28;51062;-51
2022/09/25 02:47:20;;;;;;;;;8.50;8.50;;;;;;;;5031341;28;51669;-50
2022/09/25 02:50:04;;;;;;;;;9.00;8.00;;;;;;;;5032363;28;51004;-49
2022/09/25 02:52:47;;;;;;;;;9.00;9.00;;;;;;;;5038629;28;51154;-49
2022/09/25 02:55:23;;;;;;;;;11.00;9.25;;;;;;;;5035114;28;51112;-49
2022/09/25 02:58:02;;;;;;;;;9.33;9.33;;;;;;;;5025965;28;51047;-49
2022/09/25 03:00:28;;;;;;;;;9.50;9.00;;;;;;;;5029026;28;51152;-51
2022/09/25 03:02:55;;;;;;;;;8.25;8.25;;;;;;;;5030973;28;51228;-49
2022/09/25 03:05:22;;;;;;;;;10.75;9.00;;;;;;;;5034836;28;51091;-51
2022/09/25 03:10:32;;;;;;;;;8.00;8.00;;;;;;;;5032845;28;50867;-50
2022/09/25 03:13:11;;;;;;;;;10.00;9.00;;;;;;;;5042670;28;50879;-50
2022/09/25 03:15:36;;;;;;;;;8.00;7.50;;;;;;;;5031613;28;51025;-50
2022/09/25 03:18:01;;;;;;;;;10.00;9.00;;;;;;;;5039164;28;51276;-50
2022/09/25 03:20:27;;;;;;;;;6.50;6.50;;;;;;;;5031675;28;51173;-52
2022/09/25 03:22:52;;;;;;;;;9.50;9.00;;;;;;;;5039562;28;51016;-49
2022/09/25 03:25:18;;;;;;;;;9.67;9.00;;;;;;;;5036218;28;51175;-53
2022/09/25 03:27:45;;;;;;;;;10.50;10.50;;;;;;;;5034063;28;51987;-49
2022/09/25 03:30:10;;;;;;;;;10.00;10.00;;;;;;;;5029646;28;51318;-51
2022/09/25 03:32:37;;;;;;;;;12.00;12.00;;;;;;;;5028303;28;51439;-52
2022/09/25 03:35:03;;;;;;;;;8.33;8.33;;;;;;;;5037926;28;51236;-51
2022/09/25 03:37:28;;;;;;;;;9.33;9.00;;;;;;;;5033580;28;52764;-52
2022/09/25 03:39:54;;;;;;;;;10.25;9.75;;;;;;;;5033529;28;51168;-51
2022/09/25 03:42:19;;;;;;;;;8.25;7.75;;;;;;;;5045597;28;51111;-50
2022/09/25 03:44:44;;;;;;;;;12.00;11.50;;;;;;;;5035621;28;51376;-52
2022/09/25 03:47:09;;;;;;;;;10.00;9.00;;;;;;;;5038956;28;51636;-52
2022/09/25 03:49:34;;;;;;;;;9.00;8.00;;;;;;;;5033871;28;52386;-49
2022/09/25 03:52:00;;;;;;;;;13.50;12.50;;;;;;;;5034471;28;51219;-53
2022/09/25 03:54:25;;;;;;;;;10.00;10.00;;;;;;;;5045666;28;51621;-50
2022/09/25 03:56:50;;;;;;;;;10.00;9.00;;;;;;;;5036269;28;51809;-48
2022/09/25 03:59:15;;;;;;;;;9.00;8.00;;;;;;;;5036895;28;51028;-50
2022/09/25 04:01:41;;;;;;;;;12.00;11.00;;;;;;;;5047245;28;51257;-49
2022/09/25 04:04:06;;;;;;;;;6.25;6.00;;;;;;;;5038291;28;50933;-48
2022/09/25 04:06:31;;;;;;;;;7.50;7.50;;;;;;;;5036354;28;51591;-50
2022/09/25 04:08:56;;;;;;;;;9.00;9.00;;;;;;;;5029777;28;51349;-51
2022/09/25 04:11:23;;;;;;;;;8.00;7.75;;;;;;;;5034795;28;51102;-52
2022/09/25 04:13:48;;;;;;;;;9.50;9.00;;;;;;;;5043304;28;50962;-49
2022/09/25 04:16:14;;;;;;;;;10.00;10.00;;;;;;;;5044423;28;51097;-50
2022/09/25 04:18:41;;;;;;;;;10.00;9.00;;;;;;;;5033818;28;50942;-49
2022/09/25 04:21:07;;;;;;;;;11.50;9.50;;;;;;;;5033987;28;51148;-51
2022/09/25 04:23:33;;;;;;;;;9.67;8.00;;;;;;;;5037839;28;50879;-51
2022/09/25 04:25:58;;;;;;;;;7.67;7.67;;;;;;;;5030941;28;52174;-50
2022/09/25 04:28:24;;;;;;;;;9.25;9.00;;;;;;;;5034426;28;51010;-50
2022/09/25 04:30:49;;;;;;;;;9.50;9.50;;;;;;;;5037675;28;51007;-49
2022/09/25 04:35:59;;;;;;;;;9.00;9.00;;;;;;;;5035396;28;50988;-50
2022/09/25 04:38:25;;;;;;;;;11.50;11.00;;;;;;;;5039373;28;51176;-51
2022/09/25 04:40:50;;;;;;;;;13.75;13.00;;;;;;;;5036790;28;51021;-53
2022/09/25 04:43:15;;;;;;;;;12.00;11.50;;;;;;;;5038074;28;51054;-49
2022/09/25 04:45:40;;;;;;;;;11.50;11.50;;;;;;;;5038590;28;53133;-50
2022/09/25 04:48:06;;;;;;;;;11.50;10.50;;;;;;;;5045419;28;51090;-50
2022/09/25 04:50:32;;;;;;;;;12.25;11.50;;;;;;;;5034722;28;50967;-52
2022/09/25 04:52:58;;;;;;;;;11.50;11.00;;;;;;;;5034634;28;50928;-52
2022/09/25 04:55:23;;;;;;;;;18.00;17.50;;;;;;;;5037730;28;51326;-51
2022/09/25 04:57:53;;;;;;;;;18.50;17.75;;;;;;;;5041995;28;51165;-51
2022/09/25 05:00:18;;;;;;;;;14.25;13.00;;;;;;;;5032120;28;50869;-49
2022/09/25 05:02:46;;;;;;;;;16.50;16.00;;;;;;;;5037167;28;51092;-53
2022/09/25 05:05:12;;;;;;;;;16.00;14.75;;;;;;;;5033692;28;51017;-49
2022/09/25 05:07:38;;;;;;;;;11.25;11.25;;;;;;;;5044172;28;51091;-55
2022/09/25 05:10:04;;;;;;;;;11.25;11.00;;;;;;;;5032019;28;51173;-50
2022/09/25 05:12:29;;;;;;;;;13.00;12.00;;;;;;;;5036152;28;51300;-49
2022/09/25 05:14:54;;;;;;;;;16.50;15.00;;;;;;;;5041097;28;51786;-50
2022/09/25 05:17:19;;;;;;;;;14.50;14.50;;;;;;;;5030884;28;51016;-50
2022/09/25 05:19:45;;;;;;;;;14.50;14.25;;;;;;;;5034036;28;51358;-50
2022/09/25 05:22:10;;;;;;;;;16.25;13.50;;;;;;;;5035810;28;51156;-52
2022/09/25 05:24:37;;;;;;;;;15.00;14.00;;;;;;;;5040873;28;52523;-52
2022/09/25 05:27:02;;;;;;;;;15.75;13.00;;;;;;;;5033679;28;51015;-50
2022/09/25 05:29:28;;;;;;;;;16.25;15.00;;;;;;;;5030357;28;51148;-51
2022/09/25 05:31:53;;;;;;;;;15.00;15.00;;;;;;;;5034890;28;50894;-50
2022/09/25 05:34:18;;;;;;;;;15.75;15.75;;;;;;;;5029687;28;52643;-49
2022/09/25 05:36:43;;;;;;;;;12.25;11.00;;;;;;;;5044718;28;50835;-50
2022/09/25 05:39:09;;;;;;;;;13.50;11.25;;;;;;;;5031101;28;51149;-51
2022/09/25 05:41:35;;;;;;;;;16.00;15.00;;;;;;;;5034337;28;50912;-49
2022/09/25 05:44:05;;;;;;;;;13.50;12.75;;;;;;;;5039078;28;51355;-51
2022/09/25 05:46:30;;;;;;;;;14.25;13.75;;;;;;;;5040611;28;50913;-54
2022/09/25 05:48:55;;;;;;;;;14.50;14.00;;;;;;;;5034211;28;51114;-53
2022/09/25 05:51:21;;;;;;;;;12.50;11.25;;;;;;;;5028259;28;51338;-51
2022/09/25 05:53:46;;;;;;;;;16.00;15.75;;;;;;;;5037457;28;51108;-51
2022/09/25 05:56:12;;;;;;;;;14.00;14.00;;;;;;;;5036486;28;51142;-51
2022/09/25 05:58:37;;;;;;;;;13.00;10.25;;;;;;;;5027287;28;51179;-52
2022/09/25 06:01:03;;;;;;;;;16.25;14.25;;;;;;;;5032136;28;51324;-49
2022/09/25 06:03:29;;;;;;;;;12.75;11.50;;;;;;;;5036869;28;54434;-52
2022/09/25 06:05:58;;;;;;;;;14.75;13.50;;;;;;;;5032698;28;50893;-49
2022/09/25 06:08:24;;;;;;;;;13.75;12.75;;;;;;;;5036970;28;51203;-51
2022/09/25 06:10:55;;;;;;;;;12.25;10.75;;;;;;;;5033092;28;51401;-49
2022/09/25 06:13:22;;;;;;;;;13.00;11.25;;;;;;;;5036833;28;50905;-50
2022/09/25 06:15:50;;;;;;;;;12.75;11.25;;;;;;;;5033182;28;50962;-51
2022/09/25 06:18:15;;;;;;;;;15.50;13.75;;;;;;;;5022126;28;51231;-52
2022/09/25 06:20:40;;;;;;;;;13.00;12.75;;;;;;;;5028084;28;51112;-51
2022/09/25 06:23:05;;;;;;;;;12.50;10.50;;;;;;;;5029439;28;51774;-51
2022/09/25 06:25:35;;;;;;;;;11.00;11.00;;;;;;;;5029245;28;51060;-50
2022/09/25 06:28:00;;;;;;;;;8.75;8.75;;;;;;;;5028261;28;51026;-50
2022/09/25 06:30:32;;;;;;;;;11.00;9.75;;;;;;;;5029050;28;51200;-52
2022/09/25 06:32:58;;;;;;;;;10.50;10.00;;;;;;;;5030155;28;51098;-50
2022/09/25 06:35:24;;;;;;;;;10.25;10.00;;;;;;;;5029626;28;51029;-51
2022/09/25 06:37:49;;;;;;;;;9.00;8.50;;;;;;;;5029259;28;51128;-51
2022/09/25 06:40:15;;;;;;;;;9.75;9.25;;;;;;;;5028760;28;52264;-49
2022/09/25 06:42:40;;;;;;;;;10.00;9.25;;;;;;;;5026722;28;51129;-50
2022/09/25 06:45:06;;;;;;;;;11.50;10.25;;;;;;;;5030705;28;51084;-52
2022/09/25 06:47:31;;;;;;;;;11.00;10.25;;;;;;;;5028039;28;51171;-52
2022/09/25 06:49:56;;;;;;;;;8.00;8.00;;;;;;;;5028512;28;51095;-53
2022/09/25 06:52:22;;;;;;;;;7.00;7.00;;;;;;;;5023815;28;51699;-51
2022/09/25 06:54:47;;;;;;;;;7.75;7.75;;;;;;;;5023813;28;51181;-50
2022/09/25 06:57:12;;;;;;;;;9.50;8.75;;;;;;;;5022944;28;51234;-51
2022/09/25 06:59:37;;;;;;;;;9.00;9.00;;;;;;;;5024829;28;51158;-51
2022/09/25 07:03:43;;;;;;;;;10.00;9.00;;;;;;;;5027715;27;51996;-51
2022/09/25 07:04:50;;;;;;;;;9.00;8.50;;;;;;;;5029179;28;52052;-50
2022/09/25 07:07:18;;;;;;;;;8.50;8.00;;;;;;;;5029512;28;51171;-52
2022/09/25 07:09:43;;;;;;;;;6.00;6.00;;;;;;;;5030515;28;50866;-53
2022/09/25 07:12:10;;;;;;;;;9.00;6.67;;;;;;;;5027290;28;51167;-52
2022/09/25 07:14:35;;;;;;;;;7.67;7.67;;;;;;;;5025802;28;51163;-50
2022/09/25 07:17:00;;;;;;;;;6.00;5.67;;;;;;;;5027034;28;51294;-52
2022/09/25 07:19:25;;;;;;;;;6.67;6.00;;;;;;;;5033520;28;51372;-57
2022/09/25 07:21:54;;;;;;;;;8.33;5.67;;;;;;;;5038816;28;52829;-52
2022/09/25 07:24:20;;;;;;;;;7.33;6.00;;;;;;;;5029093;28;51227;-50
2022/09/25 07:26:46;;;;;;;;;6.33;5.33;;;;;;;;5029878;28;51945;-50
2022/09/25 07:29:11;;;;;;;;;6.00;5.67;;;;;;;;5042322;28;51300;-51
2022/09/25 07:31:36;;;;;;;;;7.67;7.00;;;;;;;;5033206;28;51722;-53
2022/09/25 07:34:07;;;;;;;;;5.00;5.00;;;;;;;;5037820;28;51057;-50
2022/09/25 07:36:33;;;;;;;;;6.00;5.67;;;;;;;;5027612;28;51216;-51
2022/09/25 07:38:58;;;;;;;;;6.67;5.67;;;;;;;;5034906;28;51349;-51
2022/09/25 07:41:23;;;;;;;;;5.33;5.33;;;;;;;;5038446;28;51194;-53
2022/09/25 07:43:56;;;;;;;;;7.67;6.00;;;;;;;;5028696;28;52252;-51
2022/09/25 07:46:21;;;;;;;;;5.00;4.00;;;;;;;;5035273;28;50969;-51
2022/09/25 07:48:50;;;;;;;;;5.33;5.00;;;;;;;;5032609;28;51384;-50
2022/09/25 07:51:15;;;;;;;;;5.00;4.33;;;;;;;;5024603;28;51313;-51
2022/09/25 07:53:41;;;;;;;;;4.33;4.00;;;;;;;;5029092;28;51281;-51
2022/09/25 07:56:07;;;;;;;;;3.00;3.00;;;;;;;;5031629;28;51123;-52
2022/09/25 07:58:33;;;;;;;;;8.00;6.00;;;;;;;;5034273;28;51378;-49
2022/09/25 08:01:00;;;;;;;;;3.00;3.00;;;;;;;;5032482;28;51189;-49
2022/09/25 08:03:25;;;;;;;;;5.00;5.00;;;;;;;;5028538;28;51165;-49
2022/09/25 08:06:00;;;;;;;;;4.33;4.33;;;;;;;;5027397;28;51139;-49
2022/09/25 08:08:26;;;;;;;;;5.67;4.67;;;;;;;;5027859;28;51231;-52
2022/09/25 08:10:52;;;;;;;;;18.33;18.33;;;;;;;;5045974;28;51837;-53
2022/09/25 08:13:19;;;;;;;;;19.67;19.67;;;;;;;;5036966;28;51069;-52
2022/09/25 08:15:45;;;;;;;;;3.67;3.67;;;;;;;;5039346;28;51166;-53
2022/09/25 08:18:10;;;;;;;;;4.33;4.00;;;;;;;;5040221;28;51110;-51
2022/09/25 08:20:38;;;;;;;;;2.33;2.33;;;;;;;;5036464;28;51888;-51
2022/09/25 08:23:03;;;;;;;;;2.00;1.33;;;;;;;;5032069;28;51073;-54
2022/09/25 08:25:29;;;;;;;;;4.00;4.00;;;;;;;;5029307;28;51085;-49
2022/09/25 08:27:54;;;;;;;;;2.00;2.00;;;;;;;;5031632;28;51269;-51
2022/09/25 08:30:19;;;;;;;;;2.00;2.00;;;;;;;;5029465;28;52014;-51
2022/09/25 08:32:44;;;;;;;;;0.00;0.00;;;;;;;;5027388;28;51301;-53
2022/09/25 08:35:09;;;;;;;;;1.00;1.00;;;;;;;;5039551;28;51025;-50
2022/09/25 08:37:39;;;;;;;;;3.33;2.00;;;;;;;;5048364;28;51082;-52
2022/09/25 08:40:05;;;;;;;;;2.00;2.00;;;;;;;;5031318;28;52903;-53
2022/09/25 08:42:32;;;;;;;;;3.00;2.00;;;;;;;;5027377;28;52312;-51
2022/09/25 08:50:28;;;;;;;;;2.00;1.67;;;;;;;;5031732;28;51401;-52
2022/09/25 08:53:03;;;;;;;;;2.00;1.67;;;;;;;;5031272;28;51226;-50
2022/09/25 08:58:39;;;;;;;;;2.00;2.00;;;;;;;;5032500;28;51089;-54
2022/09/25 09:01:06;;;;;;;;;1.67;1.00;;;;;;;;5032456;28;51716;-53
2022/09/25 09:03:32;;;;;;;;;1.00;1.00;;;;;;;;5032527;28;51358;-53
2022/09/25 09:06:03;;;;;;;;;0.00;0.00;;;;;;;;5030342;28;51711;-51
2022/09/25 09:08:30;;;;;;;;;0.33;0.00;;;;;;;;5027868;28;51837;-53
2022/09/25 09:11:01;;;;;;;;;0.00;0.00;;;;;;;;5033928;28;51150;-52
2022/09/25 09:13:35;;;;;;;;;0.00;0.00;;;;;;;;5033772;28;51189;-53
2022/09/25 09:16:14;;;;;;;;;1.33;1.00;;;;;;;;5037396;28;51247;-50
2022/09/25 09:18:40;;;;;;;;;1.00;1.00;;;;;;;;5033013;28;51315;-51
2022/09/25 09:21:13;;;;;;;;;0.33;0.00;;;;;;;;5029343;28;51232;-51
2022/09/25 09:23:46;;;;;;;;;1.00;1.00;;;;;;;;5031413;28;51198;-53
2022/09/25 09:26:15;;;;;;;;;1.00;1.00;;;;;;;;5039161;28;52108;-52
2022/09/25 09:28:52;;;;;;;;;1.67;0.67;;;;;;;;5040850;28;50966;-52
2022/09/25 09:31:17;;;;;;;;;0.67;0.67;;;;;;;;5032087;28;52626;-52
2022/09/25 09:33:46;;;;;;;;;1.67;1.00;;;;;;;;5028918;28;50895;-50
2022/09/25 09:36:40;;;;;;;;;1.67;1.67;;;;;;;;5029512;28;51049;-52
2022/09/25 09:39:11;;;;;;;;;1.00;0.33;;;;;;;;5028343;28;51161;-49
2022/09/25 09:41:39;;;;;;;;;0.33;0.33;;;;;;;;5034985;28;50967;-49
2022/09/25 09:44:14;;;;;;;;;0.00;0.00;;;;;;;;5033430;28;50954;-51
2022/09/25 09:46:46;;;;;;;;;0.00;0.00;;;;;;;;5029326;28;50937;-51
2022/09/25 09:49:20;;;;;;;;;0.00;0.00;;;;;;;;5031615;28;51255;-51
2022/09/25 09:51:48;;;;;;;;;1.00;0.00;;;;;;;;5032899;28;52101;-49
2022/09/25 09:54:26;;;;;;;;;0.00;0.00;;;;;;;;5029449;28;50893;-52
2022/09/25 09:56:54;;;;;;;;;0.00;0.00;;;;;;;;5029410;28;50932;-54
2022/09/25 09:59:22;;;;;;;;;0.00;0.00;;;;;;;;5032106;28;50998;-54
2022/09/25 10:01:55;;;;;;;;;2.00;1.00;;;;;;;;5029598;28;52045;-53
2022/09/25 10:04:25;;;;;;;;;1.00;1.00;;;;;;;;5031143;28;51088;-49
2022/09/25 10:06:52;;;;;;;;;0.00;0.00;;;;;;;;5052888;28;50885;-52
2022/09/25 10:09:17;;;;;;;;;0.00;0.00;;;;;;;;5045084;28;51195;-49
2022/09/25 10:11:44;;;;;;;;;0.00;0.00;;;;;;;;5038542;28;53169;-49
2022/09/25 10:14:19;;;;;;;;;1.00;1.00;;;;;;;;5032477;28;51148;-50
2022/09/25 10:16:45;;;;;;;;;1.00;0.00;;;;;;;;5032413;28;51283;-50
2022/09/25 10:19:18;;;;;;;;;0.67;0.00;;;;;;;;5043477;28;51079;-51
2022/09/25 10:21:46;;;;;;;;;0.00;0.00;;;;;;;;5029776;28;52054;-52
2022/09/25 10:24:31;;;;;;;;;0.00;0.00;;;;;;;;5030316;28;51253;-50
2022/09/25 10:27:16;;;;;;;;;1.00;0.67;;;;;;;;5052407;28;50897;-53
2022/09/25 10:29:42;;;;;;;;;0.00;0.00;;;;;;;;5039866;28;51025;-50
2022/09/25 10:32:10;;;;;;;;;0.00;0.00;;;;;;;;5029820;28;51154;-49
2022/09/25 10:34:35;;;;;;;;;0.00;0.00;;;;;;;;5030877;28;51218;-52
2022/09/25 10:37:13;;;;;;;;;0.00;0.00;;;;;;;;5045175;28;50949;-52
2022/09/25 10:39:39;;;;;;;;;8.67;8.67;;;;;;;;5030654;28;51144;-55
2022/09/25 10:42:07;;;;;;;;;1.00;1.00;;;;;;;;5025985;28;51934;-50
2022/09/25 10:44:33;;;;;;;;;0.33;0.33;;;;;;;;5031702;28;50926;-54
2022/09/25 10:50:21;;;;;;;;;1.00;0.00;;;;;;;;5027578;28;51322;-51
2022/09/25 10:52:51;;;;;;;;;1.00;1.00;;;;;;;;5034996;28;51059;-51
2022/09/25 10:55:24;;;;;;;;;1.00;0.33;;;;;;;;5028965;28;51119;-56
2022/09/25 10:57:54;;;;;;;;;0.33;0.33;;;;;;;;5027104;28;51309;-51
2022/09/25 11:00:20;;;;;;;;;0.00;0.00;;;;;;;;5029917;28;51213;-51
2022/09/25 11:02:47;;;;;;;;;1.00;1.00;;;;;;;;5029232;28;52141;-50
2022/09/25 11:05:17;;;;;;;;;2.33;2.00;;;;;;;;5034572;28;51437;-51
2022/09/25 11:07:51;;;;;;;;;0.00;0.00;;;;;;;;5051234;28;51012;-53
2022/09/25 11:10:35;;;;;;;;;2.00;0.00;;;;;;;;5050808;28;51278;-50
2022/09/25 11:13:07;;;;;;;;;0.33;0.33;;;;;;;;5030123;28;51172;-52
2022/09/25 11:15:33;;;;;;;;;1.00;1.00;;;;;;;;5031350;28;50859;-50
2022/09/25 11:17:59;;;;;;;;;2.00;2.00;;;;;;;;5032084;28;51026;-52
2022/09/25 11:20:28;;;;;;;;;1.00;1.00;;;;;;;;5030488;28;51385;-53
2022/09/25 11:23:13;;;;;;;;;1.00;0.00;;;;;;;;5030825;28;51856;-50
2022/09/25 11:26:05;;;;;;;;;1.33;1.33;;;;;;;;5031472;28;51098;-53
2022/09/25 11:28:33;;;;;;;;;0.33;0.33;;;;;;;;5031541;28;51069;-52
2022/09/25 11:31:10;;;;;;;;;0.00;0.00;;;;;;;;5031709;28;51001;-50
2022/09/25 11:33:41;;;;;;;;;1.00;1.00;;;;;;;;5029871;28;51030;-53
2022/09/25 11:36:16;;;;;;;;;0.00;0.00;;;;;;;;5031465;28;51094;-51
2022/09/25 11:41:47;;;;;;;;;0.67;0.00;;;;;;;;5031625;28;51034;-49
2022/09/25 11:44:26;;;;;;;;;1.33;1.33;;;;;;;;5018974;28;51299;-50
2022/09/25 11:46:58;;;;;;;;;2.00;2.00;;;;;;;;5031245;28;51220;-51
2022/09/25 11:49:26;;;;;;;;;2.00;1.00;;;;;;;;5031243;28;51115;-50
2022/09/25 11:52:04;;;;;;;;;0.00;0.00;;;;;;;;5010820;28;51371;-51
2022/09/25 11:54:30;;;;;;;;;0.67;0.67;;;;;;;;5020796;28;51238;-52
2022/09/25 11:57:01;;;;;;;;;0.33;0.33;;;;;;;;5030489;28;51024;-50
2022/09/25 11:59:27;;;;;;;;;2.00;1.33;;;;;;;;5031402;28;51119;-50
2022/09/25 12:02:05;;;;;;;;;0.33;0.33;;;;;;;;5029899;28;50808;-52
2022/09/25 12:04:49;;;;;;;;;0.33;0.00;;;;;;;;5030818;28;52468;-50
2022/09/25 12:07:28;;;;;;;;;1.00;1.00;;;;;;;;5031935;28;51045;-48
2022/09/25 12:09:56;;;;;;;;;1.67;1.67;;;;;;;;5034454;28;50993;-51
2022/09/25 12:12:22;;;;;;;;;0.00;0.00;;;;;;;;5033153;28;50946;-53
2022/09/25 12:15:03;;;;;;;;;0.00;0.00;;;;;;;;5033159;28;51976;-52
2022/09/25 12:17:37;;;;;;;;;3.00;2.00;;;;;;;;5034682;28;50997;-52
2022/09/25 12:20:21;;;;;;;;;1.00;1.00;;;;;;;;5034055;28;51137;-49
2022/09/25 12:22:55;;;;;;;;;0.00;0.00;;;;;;;;5033728;28;51259;-49
2022/09/25 12:25:40;;;;;;;;;1.00;1.00;;;;;;;;5033395;28;51791;-49
2022/09/25 12:28:09;;;;;;;;;0.67;0.00;;;;;;;;5026846;28;51140;-52
2022/09/25 12:30:38;;;;;;;;;1.00;0.00;;;;;;;;5034360;28;51208;-52
2022/09/25 12:33:09;;;;;;;;;0.00;0.00;;;;;;;;5033197;28;51306;-52
2022/09/25 12:35:40;;;;;;;;;1.00;1.00;;;;;;;;5033667;28;51139;-52
2022/09/25 12:38:38;;;;;;;;;0.00;0.00;;;;;;;;5034042;28;50781;-50
2022/09/25 12:41:04;;;;;;;;;1.33;1.33;;;;;;;;5030739;28;51046;-50
2022/09/25 12:43:40;;;;;;;;;1.00;1.00;;;;;;;;5032719;28;51060;-51
2022/09/25 12:46:11;;;;;;;;;0.00;0.00;;;;;;;;5033450;28;51088;-51
2022/09/25 12:48:42;;;;;;;;;0.00;0.00;;;;;;;;5033083;28;51142;-50
2022/09/25 12:51:15;;;;;;;;;1.00;1.00;;;;;;;;5033935;28;51098;-51
2022/09/25 12:54:00;;;;;;;;;0.00;0.00;;;;;;;;5030988;28;51303;-51
2022/09/25 12:56:29;;;;;;;;;0.00;0.00;;;;;;;;5029508;28;51850;-50
2022/09/25 12:58:58;;;;;;;;;1.00;0.33;;;;;;;;5031752;28;51144;-50
2022/09/25 13:01:26;;;;;;;;;1.00;1.00;;;;;;;;5035002;28;51358;-52
2022/09/25 13:03:59;;;;;;;;;1.00;0.00;;;;;;;;5029564;28;51083;-51
2022/09/25 13:06:33;;;;;;;;;1.00;1.00;;;;;;;;5028627;28;51360;-51
2022/09/25 13:09:02;;;;;;;;;1.00;1.00;;;;;;;;5033564;28;51118;-52
2022/09/25 13:11:44;;;;;;;;;3.67;3.00;;;;;;;;5033233;28;51077;-51
2022/09/25 13:14:15;;;;;;;;;2.33;2.00;;;;;;;;5047743;28;51311;-51
2022/09/25 13:16:40;;;;;;;;;1.00;1.00;;;;;;;;5030019;28;52049;-54
2022/09/25 13:19:22;;;;;;;;;2.00;2.00;;;;;;;;5034905;28;51297;-51
2022/09/25 13:21:47;;;;;;;;;3.33;3.33;;;;;;;;5051168;28;51067;-52
2022/09/25 13:24:14;;;;;;;;;0.67;0.67;;;;;;;;5033154;28;50854;-51
2022/09/25 13:26:49;;;;;;;;;1.00;1.00;;;;;;;;5047674;28;52185;-53
2022/09/25 13:29:22;;;;;;;;;2.33;1.00;;;;;;;;5024862;28;51100;-50
2022/09/25 13:31:48;;;;;;;;;1.33;1.00;;;;;;;;5031422;28;50966;-51
2022/09/25 13:34:17;;;;;;;;;1.00;1.00;;;;;;;;5051098;28;51359;-53
2022/09/25 13:36:46;;;;;;;;;1.67;1.00;;;;;;;;5046465;28;51274;-50
2022/09/25 13:42:19;;;;;;;;;4.00;4.00;;;;;;;;5048535;28;51131;-50
2022/09/25 13:44:49;;;;;;;;;1.33;1.33;;;;;;;;5038202;28;51059;-54
2022/09/25 13:47:21;;;;;;;;;19.75;18.25;;;;;;;;5040152;28;51166;-49
2022/09/25 13:49:54;;;;;;;;;1.00;1.00;;;;;;;;5036705;28;51660;-50
2022/09/25 13:52:29;;;;;;;;;1.00;1.00;;;;;;;;5034987;28;51279;-50
2022/09/25 13:55:18;;;;;;;;;2.00;2.00;;;;;;;;5029476;28;51302;-53
2022/09/25 13:57:57;;;;;;;;;2.00;2.00;;;;;;;;5022485;28;52134;-51
2022/09/25 14:00:23;;;;;;;;;1.00;1.00;;;;;;;;5026748;28;51223;-51
2022/09/25 14:02:49;;;;;;;;;3.67;3.00;;;;;;;;5032835;28;50887;-51
2022/09/25 14:05:19;;;;;;;;;1.00;1.00;;;;;;;;5045496;28;50848;-50
2022/09/25 14:07:47;;;;;;;;;3.00;3.00;;;;;;;;5038877;28;51065;-51
2022/09/25 14:10:12;;;;;;;;;2.00;1.00;;;;;;;;5033180;28;50978;-52
2022/09/25 14:12:41;;;;;;;;;1.33;1.00;;;;;;;;5034381;28;51061;-52
2022/09/25 14:15:27;;;;;;;;;2.00;2.00;;;;;;;;5033817;28;50927;-55
2022/09/25 14:17:54;;;;;;;;;1.00;1.00;;;;;;;;5022715;28;53366;-52
2022/09/25 14:20:28;;;;;;;;;3.00;3.00;;;;;;;;5032196;28;51086;-52
2022/09/25 14:22:55;;;;;;;;;1.33;1.33;;;;;;;;5031863;28;51099;-50
2022/09/25 14:25:31;;;;;;;;;1.00;1.00;;;;;;;;5033181;28;51442;-51
2022/09/25 14:27:57;;;;;;;;;3.33;3.00;;;;;;;;5030405;28;52308;-49
2022/09/25 14:30:27;;;;;;;;;2.00;1.00;;;;;;;;5038370;28;50943;-52
2022/09/25 14:33:08;;;;;;;;;4.00;4.00;;;;;;;;5037229;28;51124;-51
2022/09/25 14:35:36;;;;;;;;;2.33;2.33;;;;;;;;5028660;28;51375;-50
2022/09/25 14:38:06;;;;;;;;;2.67;2.67;;;;;;;;5031463;28;51129;-54
2022/09/25 14:40:35;;;;;;;;;1.00;1.00;;;;;;;;5029999;28;51051;-50
2022/09/25 14:43:10;;;;;;;;;1.00;1.00;;;;;;;;5028334;28;51234;-52
2022/09/25 14:45:38;;;;;;;;;2.33;2.33;;;;;;;;5030412;28;51085;-53
2022/09/25 14:48:13;;;;;;;;;2.67;2.67;;;;;;;;5024638;28;51814;-50
2022/09/25 14:50:44;;;;;;;;;1.67;1.67;;;;;;;;5029880;28;51209;-53
2022/09/25 14:53:11;;;;;;;;;3.00;2.00;;;;;;;;5030654;28;51056;-52
2022/09/25 14:55:41;;;;;;;;;2.00;2.00;;;;;;;;5030992;28;51301;-55
2022/09/25 14:58:08;;;;;;;;;3.00;3.00;;;;;;;;5032365;28;51138;-53
2022/09/25 15:00:34;;;;;;;;;3.33;3.33;;;;;;;;5032441;28;50908;-51
2022/09/25 15:03:01;;;;;;;;;2.67;1.67;;;;;;;;5032529;28;51067;-53
2022/09/25 15:05:29;;;;;;;;;2.67;2.00;;;;;;;;5028612;28;51364;-54
2022/09/25 15:07:57;;;;;;;;;1.67;1.67;;;;;;;;5041747;28;51102;-51
2022/09/25 15:10:33;;;;;;;;;2.00;2.00;;;;;;;;5051287;28;50994;-53
2022/09/25 15:13:06;;;;;;;;;1.33;1.33;;;;;;;;5035166;28;51042;-51
2022/09/25 15:15:32;;;;;;;;;2.33;2.33;;;;;;;;5031256;28;51400;-52